createdAt,value
2022-10-17T00:00:10.413Z,99590.17
2022-10-17T00:03:03.071Z,99595.99
2022-10-17T00:05:35.605Z,99593.16
2022-10-17T00:08:08.278Z,99594.75
2022-10-17T00:10:43.609Z,99598.80
2022-10-17T00:13:16.275Z,99600.20
2022-10-17T00:15:51.711Z,99598.06
2022-10-17T00:18:25.794Z,99602.09
2022-10-17T00:20:58.449Z,99602.42
2022-10-17T00:23:31.985Z,99601.02
2022-10-17T00:26:07.872Z,99601.55
2022-10-17T00:28:40.795Z,99606.85
2022-10-17T00:31:13.182Z,99604.20
2022-10-17T00:33:47.289Z,99604.38
2022-10-17T00:36:21.889Z,99610.00
2022-10-17T00:39:01.498Z,99611.94
2022-10-17T00:41:36.521Z,99613.70
2022-10-17T00:44:24.669Z,99617.03
2022-10-17T00:46:57.180Z,99616.52
2022-10-17T00:49:32.999Z,99618.79
2022-10-17T00:52:10.738Z,99610.48
2022-10-17T00:54:44.704Z,99617.55
2022-10-17T00:57:17.257Z,99613.64
2022-10-17T00:59:55.036Z,99615.16
2022-10-17T01:02:29.171Z,99615.67
2022-10-17T01:05:03.218Z,99620.63
2022-10-17T01:07:37.316Z,99617.23
2022-10-17T01:10:11.527Z,99624.83
2022-10-17T01:13:02.045Z,99619.88
2022-10-17T01:15:46.630Z,99619.36
2022-10-17T01:18:25.743Z,99620.06
2022-10-17T01:21:28.248Z,99618.30
2022-10-17T01:24:47.934Z,99617.73
2022-10-17T01:27:43.306Z,99613.83
2022-10-17T01:30:50.586Z,99615.56
2022-10-17T01:33:37.006Z,99623.10
2022-10-17T01:36:14.191Z,99622.73
2022-10-17T01:38:52.224Z,99623.92
2022-10-17T01:41:31.274Z,99627.25
2022-10-17T01:44:06.510Z,99628.70
2022-10-17T01:46:40.123Z,99621.27
2022-10-17T01:49:17.398Z,99625.89
2022-10-17T01:51:52.736Z,99626.77
2022-10-17T01:54:28.888Z,99626.40
2022-10-17T01:57:03.997Z,99628.66
2022-10-17T01:59:40.339Z,99628.48
2022-10-17T02:02:12.955Z,99628.46
2022-10-17T02:04:45.881Z,99629.70
2022-10-17T02:07:20.569Z,99631.13
2022-10-17T02:09:56.544Z,99638.17
2022-10-17T02:12:48.883Z,99638.89
2022-10-17T02:15:52.865Z,99637.11
2022-10-17T02:18:43.185Z,99638.96
2022-10-17T02:21:22.530Z,99639.95
2022-10-17T02:23:59.791Z,99640.08
2022-10-17T02:26:38.733Z,99640.56
2022-10-17T02:29:15.906Z,99634.20
2022-10-17T02:31:50.089Z,99636.84
2022-10-17T02:34:26.177Z,99636.48
2022-10-17T02:37:02.585Z,99635.21
2022-10-17T02:39:37.095Z,99633.98
2022-10-17T02:42:12.830Z,99625.85
2022-10-17T02:44:47.222Z,99624.05
2022-10-17T02:47:26.784Z,99626.98
2022-10-17T02:50:04.371Z,99636.84
2022-10-17T02:52:42.818Z,99643.45
2022-10-17T02:55:18.146Z,99644.17
2022-10-17T02:57:52.059Z,99640.48
2022-10-17T03:00:25.376Z,99637.33
2022-10-17T03:02:59.690Z,99638.91
2022-10-17T03:05:33.109Z,99640.15
2022-10-17T03:08:06.366Z,99638.77
2022-10-17T03:10:41.029Z,99646.04
2022-10-17T03:13:14.387Z,99655.20
2022-10-17T03:15:47.294Z,99662.02
2022-10-17T03:18:23.837Z,99665.68
2022-10-17T03:20:56.419Z,99665.67
2022-10-17T03:23:30.946Z,99659.14
2022-10-17T03:26:06.596Z,99665.83
2022-10-17T03:28:38.659Z,99670.50
2022-10-17T03:31:12.372Z,99674.16
2022-10-17T03:33:45.421Z,99677.50
2022-10-17T03:36:19.153Z,99669.98
2022-10-17T03:38:55.534Z,99674.40
2022-10-17T03:41:28.742Z,99678.31
2022-10-17T03:44:02.299Z,99681.63
2022-10-17T03:46:38.359Z,99683.46
2022-10-17T03:49:12.740Z,99685.00
2022-10-17T03:51:45.063Z,99683.41
2022-10-17T03:54:18.125Z,99685.14
2022-10-17T03:56:52.335Z,99688.42
2022-10-17T03:59:26.898Z,99685.97
2022-10-17T04:02:00.006Z,99686.31
2022-10-17T04:04:34.061Z,99686.66
2022-10-17T04:07:08.226Z,99689.83
2022-10-17T04:09:40.128Z,99691.55
2022-10-17T04:12:13.473Z,99693.65
2022-10-17T04:14:45.249Z,99690.81
2022-10-17T04:17:43.709Z,99690.41
2022-10-17T04:20:16.905Z,99692.95
2022-10-17T04:22:51.942Z,99691.30
2022-10-17T04:25:54.486Z,99693.02
2022-10-17T04:29:20.164Z,99699.69
2022-10-17T04:31:57.011Z,99701.74
2022-10-17T04:34:56.648Z,99706.32
2022-10-17T04:37:35.862Z,99699.80
2022-10-17T04:40:16.647Z,99703.52
2022-10-17T04:42:49.899Z,99711.86
2022-10-17T04:45:31.117Z,99708.01
2022-10-17T04:48:34.570Z,99703.92
2022-10-17T04:51:12.876Z,99700.39
2022-10-17T04:54:11.298Z,99700.58
2022-10-17T04:57:11.424Z,99698.04
2022-10-17T04:59:44.406Z,99699.59
2022-10-17T05:03:04.719Z,99694.29
2022-10-17T05:05:41.096Z,99695.98
2022-10-17T05:11:39.081Z,99704.44
2022-10-17T05:14:15.060Z,99708.50
2022-10-17T05:20:21.257Z,99711.92
2022-10-17T05:22:53.834Z,99712.15
2022-10-17T05:29:21.093Z,99721.03
2022-10-17T05:31:57.893Z,99727.21
2022-10-17T05:34:36.817Z,99727.40
2022-10-17T05:42:37.776Z,99733.65
2022-10-17T05:45:14.645Z,99730.92
2022-10-17T05:48:11.752Z,99739.05
2022-10-17T05:50:58.665Z,99738.35
2022-10-17T05:57:02.859Z,99746.68
2022-10-17T05:59:41.147Z,99747.89
2022-10-17T06:03:04.013Z,99752.82
2022-10-17T06:05:40.686Z,99753.65
2022-10-17T06:08:23.809Z,99758.52
2022-10-17T06:10:59.352Z,99759.86
2022-10-17T06:16:59.115Z,99762.80
2022-10-17T06:19:32.705Z,99763.23
2022-10-17T06:22:30.169Z,99765.45
2022-10-17T06:25:05.693Z,99773.08
2022-10-17T06:28:28.492Z,99777.55
2022-10-17T06:31:13.021Z,99780.45
2022-10-17T06:33:51.810Z,99781.08
2022-10-17T06:36:29.722Z,99786.29
2022-10-17T06:39:53.630Z,99782.46
2022-10-17T06:42:31.622Z,99782.72
2022-10-17T06:45:33.083Z,99779.80
2022-10-17T06:48:12.155Z,99783.92
2022-10-17T06:50:44.523Z,99788.40
2022-10-17T06:53:46.986Z,99789.86
2022-10-17T06:56:46.303Z,99787.05
2022-10-17T07:02:42.446Z,99792.18
2022-10-17T07:06:08.343Z,99792.52
2022-10-17T07:11:45.742Z,99798.48
2022-10-17T07:14:23.512Z,99799.77
2022-10-17T07:16:56.847Z,99803.35
2022-10-17T07:19:57.757Z,99804.61
2022-10-17T07:22:56.274Z,99805.88
2022-10-17T07:25:57.051Z,99808.58
2022-10-17T07:36:10.351Z,99818.50
2022-10-17T07:38:49.997Z,99820.26
2022-10-17T07:42:10.993Z,99818.29
2022-10-17T07:49:01.476Z,99818.94
2022-10-17T07:52:04.771Z,99817.98
2022-10-17T07:58:05.076Z,99827.95
2022-10-17T08:00:52.381Z,99830.01
2022-10-17T08:03:55.336Z,99830.11
2022-10-17T08:06:33.968Z,99829.67
2022-10-17T08:13:01.130Z,99821.81
2022-10-17T08:15:35.207Z,99819.02
2022-10-17T08:18:10.890Z,99814.28
2022-10-17T08:20:46.630Z,99817.91
2022-10-17T08:24:07.681Z,99814.04
2022-10-17T08:27:56.339Z,99819.08
2022-10-17T08:30:34.665Z,99824.79
2022-10-17T08:33:36.722Z,99824.67
2022-10-17T08:36:38.497Z,99821.89
2022-10-17T08:39:36.238Z,99822.91
2022-10-17T08:43:04.781Z,99824.61
2022-10-17T08:45:43.105Z,99825.09
2022-10-17T08:49:32.084Z,99828.05
2022-10-17T08:52:57.860Z,99828.14
2022-10-17T08:55:54.775Z,99825.80
2022-10-17T08:58:44.778Z,99823.55
2022-10-17T09:01:36.442Z,99822.34
2022-10-17T09:05:05.190Z,99824.80
2022-10-17T09:11:04.619Z,99825.23
2022-10-17T09:14:29.265Z,99823.27
2022-10-17T09:17:36.730Z,99819.10
2022-10-17T09:20:26.088Z,99814.38
2022-10-17T09:23:33.704Z,99813.23
2022-10-17T09:26:07.702Z,99814.40
2022-10-17T09:28:49.880Z,99818.32
2022-10-17T09:32:28.498Z,99820.58
2022-10-17T09:35:11.724Z,99815.66
2022-10-17T09:37:48.927Z,99816.75
2022-10-17T09:40:29.217Z,99812.98
2022-10-17T09:43:12.716Z,99809.94
2022-10-17T09:46:00.349Z,99807.57
2022-10-17T09:51:52.167Z,99816.22
2022-10-17T09:54:31.949Z,99816.45
2022-10-17T10:05:03.278Z,99814.94
2022-10-17T10:08:14.140Z,99813.27
2022-10-17T10:10:47.310Z,99808.27
2022-10-17T10:13:46.215Z,99809.83
2022-10-17T10:16:58.248Z,99809.44
2022-10-17T10:20:03.493Z,99810.38
2022-10-17T10:23:14.052Z,99809.50
2022-10-17T10:26:24.661Z,99807.20
2022-10-17T10:30:15.648Z,99802.09
2022-10-17T10:33:41.339Z,99805.89
2022-10-17T10:37:07.761Z,99800.70
2022-10-17T10:40:07.776Z,99796.65
2022-10-17T10:43:05.717Z,99794.70
2022-10-17T10:46:07.299Z,99793.83
2022-10-17T10:49:04.127Z,99790.02
2022-10-17T10:51:48.521Z,99788.88
2022-10-17T10:54:30.435Z,99785.70
2022-10-17T10:57:41.371Z,99787.72
2022-10-17T11:00:53.316Z,99785.89
2022-10-17T11:04:07.994Z,99785.13
2022-10-17T11:07:14.111Z,99789.07
2022-10-17T11:10:22.655Z,99788.95
2022-10-17T11:13:29.685Z,99787.66
2022-10-17T11:16:19.672Z,99783.83
2022-10-17T11:18:54.451Z,99782.84
2022-10-17T11:21:36.082Z,99780.44
2022-10-17T11:24:16.471Z,99777.38
2022-10-17T11:26:58.814Z,99777.02
2022-10-17T11:29:33.415Z,99772.56
2022-10-17T11:32:09.471Z,99768.81
2022-10-17T11:34:47.445Z,99771.10
2022-10-17T11:37:21.551Z,99765.69
2022-10-17T11:39:56.384Z,99768.73
2022-10-17T11:42:32.384Z,99771.28
2022-10-17T11:45:10.028Z,99768.57
2022-10-17T11:47:48.439Z,99765.97
2022-10-17T11:53:18.838Z,99762.27
2022-10-17T11:55:52.591Z,99756.31
2022-10-17T11:58:34.118Z,99753.38
2022-10-17T12:01:18.825Z,99750.61
2022-10-17T12:04:05.977Z,99749.80
2022-10-17T12:07:00.332Z,99749.94
2022-10-17T12:09:41.241Z,99747.92
2022-10-17T12:12:28.615Z,99747.21
2022-10-17T12:15:31.170Z,99741.75
2022-10-17T12:18:05.291Z,99744.13
2022-10-17T12:20:40.163Z,99740.17
2022-10-17T12:23:32.386Z,99741.86
2022-10-17T12:26:06.156Z,99740.02
2022-10-17T12:28:45.476Z,99735.63
2022-10-17T12:31:32.664Z,99737.87
2022-10-17T12:34:17.190Z,99731.97
2022-10-17T12:36:50.853Z,99726.04
2022-10-17T12:39:53.489Z,99720.89
2022-10-17T12:42:54.191Z,99724.58
2022-10-17T12:45:56.218Z,99720.09
2022-10-17T12:49:07.072Z,99718.13
2022-10-17T12:52:10.356Z,99717.71
2022-10-17T12:54:53.533Z,99719.27
2022-10-17T12:57:39.069Z,99718.88
2022-10-17T13:00:22.391Z,99716.85
2022-10-17T13:03:03.899Z,99713.60
2022-10-17T13:05:37.967Z,99714.12
2022-10-17T13:08:18.873Z,99718.40
2022-10-17T13:10:53.476Z,99717.69
2022-10-17T13:13:39.274Z,99713.58
2022-10-17T13:16:15.318Z,99720.15
2022-10-17T13:18:55.361Z,99714.04
2022-10-17T13:21:29.849Z,99719.08
2022-10-17T13:24:03.089Z,99721.51
2022-10-17T13:26:34.894Z,99719.36
2022-10-17T13:29:11.747Z,99714.61
2022-10-17T13:31:46.416Z,99716.80
2022-10-17T13:34:22.329Z,99715.24
2022-10-17T13:36:57.065Z,99714.65
2022-10-17T13:39:45.234Z,99711.30
2022-10-17T13:42:28.182Z,99711.33
2022-10-17T13:45:02.858Z,99706.98
2022-10-17T13:47:41.467Z,99704.25
2022-10-17T13:50:43.038Z,99705.29
2022-10-17T13:53:28.501Z,99705.11
2022-10-17T13:56:27.467Z,99707.13
2022-10-17T13:59:06.117Z,99707.13
2022-10-17T14:01:40.536Z,99705.20
2022-10-17T14:04:19.886Z,99707.59
2022-10-17T14:06:54.481Z,99708.58
2022-10-17T14:09:28.805Z,99706.01
2022-10-17T14:12:05.667Z,99705.49
2022-10-17T14:14:58.351Z,99705.02
2022-10-17T14:17:33.290Z,99702.15
2022-10-17T14:20:40.681Z,99702.36
2022-10-17T14:23:22.063Z,99700.84
2022-10-17T14:26:08.677Z,99706.02
2022-10-17T14:28:43.574Z,99704.86
2022-10-17T14:31:26.149Z,99704.45
2022-10-17T14:33:58.392Z,99704.40
2022-10-17T14:36:41.927Z,99704.95
2022-10-17T14:39:23.922Z,99703.96
2022-10-17T14:42:02.014Z,99698.77
2022-10-17T14:44:38.459Z,99705.04
2022-10-17T14:47:42.151Z,99706.74
2022-10-17T14:50:26.370Z,99706.59
2022-10-17T14:53:06.956Z,99709.88
2022-10-17T14:55:40.900Z,99706.08
2022-10-17T14:58:30.702Z,99705.19
2022-10-17T15:01:06.767Z,99700.27
2022-10-17T15:03:39.145Z,99703.58
2022-10-17T15:06:19.701Z,99705.05
2022-10-17T15:08:52.432Z,99703.73
2022-10-17T15:11:25.264Z,99709.48
2022-10-17T15:13:57.471Z,99705.51
2022-10-17T15:16:34.979Z,99701.48
2022-10-17T15:19:07.929Z,99700.09
2022-10-17T15:21:46.931Z,99706.36
2022-10-17T15:24:24.034Z,99708.44
2022-10-17T15:26:56.801Z,99705.26
2022-10-17T15:29:33.212Z,99705.52
2022-10-17T15:32:11.394Z,99708.96
2022-10-17T15:34:45.775Z,99708.61
2022-10-17T15:37:22.495Z,99707.55
2022-10-17T15:39:57.527Z,99703.36
2022-10-17T15:42:32.324Z,99697.07
2022-10-17T15:45:06.000Z,99699.93
2022-10-17T15:47:39.791Z,99703.55
2022-10-17T15:50:16.178Z,99701.72
2022-10-17T15:52:50.894Z,99701.36
2022-10-17T15:55:22.887Z,99703.09
2022-10-17T15:57:57.116Z,99697.97
2022-10-17T16:00:30.197Z,99702.36
2022-10-17T16:03:07.547Z,99704.19
2022-10-17T16:05:40.670Z,99708.20
2022-10-17T16:08:14.886Z,99705.70
2022-10-17T16:10:47.576Z,99700.57
2022-10-17T16:13:21.545Z,99695.70
2022-10-17T16:15:55.096Z,99699.38
2022-10-17T16:18:28.480Z,99701.98
2022-10-17T16:21:06.512Z,99703.80
2022-10-17T16:23:42.749Z,99706.38
2022-10-17T16:26:17.702Z,99709.70
2022-10-17T16:28:51.355Z,99714.61
2022-10-17T16:31:28.926Z,99722.27
2022-10-17T16:34:04.397Z,99724.09
2022-10-17T16:36:37.916Z,99722.95
2022-10-17T16:39:11.219Z,99727.27
2022-10-17T16:41:46.593Z,99726.89
2022-10-17T16:44:19.252Z,99730.73
2022-10-17T16:46:51.081Z,99730.13
2022-10-17T16:49:28.026Z,99726.20
2022-10-17T16:52:01.105Z,99731.52
2022-10-17T16:54:35.485Z,99735.02
2022-10-17T16:57:09.261Z,99733.88
2022-10-17T16:59:42.480Z,99731.98
2022-10-17T17:02:17.559Z,99732.59
2022-10-17T17:04:57.055Z,99730.14
2022-10-17T17:07:31.063Z,99725.30
2022-10-17T17:10:07.906Z,99724.31
2022-10-17T17:12:39.901Z,99721.52
2022-10-17T17:15:13.510Z,99718.35
2022-10-17T17:17:52.481Z,99722.14
2022-10-17T17:20:27.804Z,99719.37
2022-10-17T17:23:01.006Z,99717.61
2022-10-17T17:25:33.719Z,99715.00
2022-10-17T17:28:11.291Z,99713.55
2022-10-17T17:30:45.185Z,99718.72
2022-10-17T17:33:20.543Z,99721.96
2022-10-17T17:35:57.506Z,99716.48
2022-10-17T17:38:32.021Z,99716.39
2022-10-17T17:41:06.558Z,99718.79
2022-10-17T17:43:41.714Z,99719.56
2022-10-17T17:46:16.838Z,99722.34
2022-10-17T17:48:52.268Z,99722.05
2022-10-17T17:51:29.395Z,99723.29
2022-10-17T17:54:04.395Z,99721.80
2022-10-17T17:56:36.088Z,99722.91
2022-10-17T17:59:08.753Z,99718.34
2022-10-17T18:01:44.431Z,99719.30
2022-10-17T18:04:17.640Z,99719.70
2022-10-17T18:06:50.055Z,99722.42
2022-10-17T18:09:23.680Z,99723.91
2022-10-17T18:11:57.841Z,99728.25
2022-10-17T18:14:30.891Z,99725.80
2022-10-17T18:17:05.227Z,99728.30
2022-10-17T18:19:43.040Z,99727.00
2022-10-17T18:22:19.842Z,99727.10
2022-10-17T18:24:54.300Z,99722.89
2022-10-17T18:27:27.288Z,99724.58
2022-10-17T18:30:00.975Z,99723.23
2022-10-17T18:32:37.057Z,99725.95
2022-10-17T18:35:11.037Z,99724.45
2022-10-17T18:37:44.589Z,99722.57
2022-10-17T18:40:19.061Z,99722.13
2022-10-17T18:42:51.502Z,99726.49
2022-10-17T18:45:25.204Z,99728.70
2022-10-17T18:47:58.879Z,99731.08
2022-10-17T18:50:33.188Z,99731.11
2022-10-17T18:53:09.347Z,99730.84
2022-10-17T18:58:24.858Z,99736.47
2022-10-17T19:00:58.028Z,99741.30
2022-10-17T19:03:30.757Z,99741.89
2022-10-17T19:06:07.946Z,99742.80
2022-10-17T19:08:41.103Z,99736.80
2022-10-17T19:11:17.833Z,99737.08
2022-10-17T19:13:50.629Z,99738.02
2022-10-17T19:16:24.929Z,99739.74
2022-10-17T19:19:04.889Z,99741.04
2022-10-17T19:21:39.519Z,99743.41
2022-10-17T19:24:16.188Z,99740.19
2022-10-17T19:26:50.249Z,99738.66
2022-10-17T19:29:26.266Z,99737.77
2022-10-17T19:31:59.415Z,99739.11
2022-10-17T19:34:31.607Z,99737.91
2022-10-17T19:37:07.354Z,99735.46
2022-10-17T19:39:41.888Z,99738.15
2022-10-17T19:42:16.091Z,99737.80
2022-10-17T19:44:51.844Z,99740.13
2022-10-17T19:47:29.301Z,99740.83
2022-10-17T19:52:43.438Z,99739.64
2022-10-17T19:55:17.003Z,99737.38
2022-10-17T19:57:50.999Z,99740.61
2022-10-17T20:00:28.697Z,99737.98
2022-10-17T20:03:04.052Z,99732.39
2022-10-17T20:05:39.388Z,99731.70
2022-10-17T20:08:16.520Z,99733.30
2022-10-17T20:10:49.768Z,99732.44
2022-10-17T20:13:23.289Z,99734.20
2022-10-17T20:15:59.622Z,99732.08
2022-10-17T20:18:32.752Z,99730.67
2022-10-17T20:21:09.327Z,99735.27
2022-10-17T20:23:44.036Z,99733.86
2022-10-17T20:26:37.133Z,99733.87
2022-10-17T20:29:18.281Z,99734.59
2022-10-17T20:31:51.942Z,99735.98
2022-10-17T20:34:28.616Z,99738.83
2022-10-17T20:37:02.719Z,99737.25
2022-10-17T20:39:38.326Z,99732.64
2022-10-17T20:42:11.276Z,99732.26
2022-10-17T20:47:39.841Z,99732.43
2022-10-17T20:50:12.447Z,99731.01
2022-10-17T20:52:44.626Z,99727.30
2022-10-17T20:55:18.946Z,99727.83
2022-10-17T20:57:52.108Z,99730.13
2022-10-17T21:00:25.892Z,99727.47
2022-10-17T21:02:59.804Z,99727.30
2022-10-17T21:05:33.783Z,99723.73
2022-10-17T21:08:08.948Z,99724.97
2022-10-17T21:10:42.706Z,99724.08
2022-10-17T21:13:17.079Z,99724.26
2022-10-17T21:15:49.914Z,99721.59
2022-10-17T21:18:23.748Z,99722.83
2022-10-17T21:20:56.966Z,99721.40
2022-10-17T21:23:29.657Z,99721.92
2022-10-17T21:26:08.513Z,99723.51
2022-10-17T21:28:43.732Z,99727.73
2022-10-17T21:31:18.736Z,99729.49
2022-10-17T21:33:52.644Z,99729.50
2022-10-17T21:36:25.911Z,99725.75
2022-10-17T21:38:59.086Z,99725.20
2022-10-17T21:41:35.494Z,99728.35
2022-10-17T21:44:11.506Z,99732.31
2022-10-17T21:46:45.412Z,99728.28
2022-10-17T21:49:21.161Z,99726.34
2022-10-17T21:51:54.865Z,99728.98
2022-10-17T22:01:46.300Z,99717.77
2022-10-17T22:04:20.047Z,99717.37
2022-10-17T22:06:53.302Z,99716.64
2022-10-17T22:09:27.260Z,99715.74
2022-10-17T22:12:01.245Z,99714.30
2022-10-17T22:14:34.930Z,99718.33
2022-10-17T22:17:07.353Z,99720.61
2022-10-17T22:19:39.971Z,99720.07
2022-10-17T22:22:12.785Z,99717.05
2022-10-17T22:24:44.894Z,99715.80
2022-10-17T22:27:19.218Z,99712.61
2022-10-17T22:29:54.321Z,99711.90
2022-10-17T22:32:27.820Z,99712.27
2022-10-17T22:35:05.057Z,99711.15
2022-10-17T22:37:38.383Z,99712.86
2022-10-17T22:40:11.978Z,99712.69
2022-10-17T22:42:45.208Z,99714.25
2022-10-17T22:45:17.754Z,99713.80
2022-10-17T22:47:49.941Z,99709.98
2022-10-17T22:50:24.085Z,99711.17
2022-10-17T22:52:56.465Z,99707.24
2022-10-17T22:55:29.968Z,99703.87
2022-10-17T22:58:05.229Z,99703.69
2022-10-17T23:00:37.188Z,99702.10
2022-10-17T23:03:09.977Z,99701.70
2022-10-17T23:05:42.386Z,99702.92
2022-10-17T23:08:16.683Z,99698.29
2022-10-17T23:10:50.116Z,99698.27
2022-10-17T23:13:22.621Z,99695.96
2022-10-17T23:15:56.662Z,99698.75
2022-10-17T23:21:06.973Z,99694.65
2022-10-17T23:23:39.488Z,99697.07
2022-10-17T23:26:17.014Z,99698.11
2022-10-17T23:28:51.145Z,99693.85
2022-10-17T23:31:24.284Z,99692.75
2022-10-17T23:33:56.202Z,99688.30
2022-10-17T23:36:28.317Z,99688.30
2022-10-17T23:39:01.071Z,99681.60
2022-10-17T23:41:34.587Z,99683.67
2022-10-17T23:44:08.465Z,99687.20
2022-10-17T23:46:40.860Z,99688.02
2022-10-17T23:49:15.329Z,99687.44
2022-10-17T23:51:50.225Z,99686.54
2022-10-17T23:54:22.454Z,99687.05
2022-10-17T23:56:56.972Z,99687.60
2022-10-17T23:59:29.599Z,99686.48
